sensor_id;sensor_type;location;lat;lon;timestamp;temperature;humidity
69944;DHT22;57257;48.408;-4.498;2023-07-24T00:00:12;18.34;73.03
69944;DHT22;57257;48.408;-4.498;2023-07-24T00:02:37;18.38;73.07
69944;DHT22;57257;48.408;-4.498;2023-07-24T00:05:03;18.34;73.02
69944;DHT22;57257;48.408;-4.498;2023-07-24T00:07:28;18.32;73.10
69944;DHT22;57257;48.408;-4.498;2023-07-24T00:09:54;18.31;73.25
69944;DHT22;57257;48.408;-4.498;2023-07-24T00:12:20;18.34;73.26
69944;DHT22;57257;48.408;-4.498;2023-07-24T00:14:46;18.31;73.28
69944;DHT22;57257;48.408;-4.498;2023-07-24T00:17:11;18.32;73.37
69944;DHT22;57257;48.408;-4.498;2023-07-24T00:19:36;18.32;73.35
69944;DHT22;57257;48.408;-4.498;2023-07-24T00:22:02;18.31;73.41
69944;DHT22;57257;48.408;-4.498;2023-07-24T00:24:29;18.32;73.47
69944;DHT22;57257;48.408;-4.498;2023-07-24T00:26:55;18.32;73.52
69944;DHT22;57257;48.408;-4.498;2023-07-24T00:29:20;18.32;73.66
69944;DHT22;57257;48.408;-4.498;2023-07-24T00:31:46;18.32;73.63
69944;DHT22;57257;48.408;-4.498;2023-07-24T00:34:11;18.34;73.68
69944;DHT22;57257;48.408;-4.498;2023-07-24T00:36:37;18.32;73.75
69944;DHT22;57257;48.408;-4.498;2023-07-24T00:39:02;18.31;73.70
69944;DHT22;57257;48.408;-4.498;2023-07-24T00:41:28;18.29;73.78
69944;DHT22;57257;48.408;-4.498;2023-07-24T00:43:53;18.29;74.01
69944;DHT22;57257;48.408;-4.498;2023-07-24T00:46:18;18.28;74.07
69944;DHT22;57257;48.408;-4.498;2023-07-24T00:48:44;18.27;74.32
69944;DHT22;57257;48.408;-4.498;2023-07-24T00:51:09;18.29;74.50
69944;DHT22;57257;48.408;-4.498;2023-07-24T00:53:35;18.27;74.82
69944;DHT22;57257;48.408;-4.498;2023-07-24T00:56:00;18.25;74.80
69944;DHT22;57257;48.408;-4.498;2023-07-24T00:58:26;18.28;74.83
69944;DHT22;57257;48.408;-4.498;2023-07-24T01:00:52;18.31;75.02
69944;DHT22;57257;48.408;-4.498;2023-07-24T01:03:17;18.31;75.04
69944;DHT22;57257;48.408;-4.498;2023-07-24T01:05:43;18.29;75.16
69944;DHT22;57257;48.408;-4.498;2023-07-24T01:08:08;18.29;75.10
69944;DHT22;57257;48.408;-4.498;2023-07-24T01:10:34;18.28;75.24
69944;DHT22;57257;48.408;-4.498;2023-07-24T01:15:31;18.27;75.28
69944;DHT22;57257;48.408;-4.498;2023-07-24T01:18:00;18.27;75.30
69944;DHT22;57257;48.408;-4.498;2023-07-24T01:20:28;18.27;75.31
69944;DHT22;57257;48.408;-4.498;2023-07-24T01:23:10;18.25;75.28
69944;DHT22;57257;48.408;-4.498;2023-07-24T01:25:57;18.24;75.41
69944;DHT22;57257;48.408;-4.498;2023-07-24T01:28:24;18.27;75.46
69944;DHT22;57257;48.408;-4.498;2023-07-24T01:30:49;18.27;75.41
69944;DHT22;57257;48.408;-4.498;2023-07-24T01:33:14;18.25;75.60
69944;DHT22;57257;48.408;-4.498;2023-07-24T01:35:42;18.29;75.57
69944;DHT22;57257;48.408;-4.498;2023-07-24T01:38:10;18.27;75.59
69944;DHT22;57257;48.408;-4.498;2023-07-24T01:40:38;18.24;75.58
69944;DHT22;57257;48.408;-4.498;2023-07-24T01:43:04;18.22;75.63
69944;DHT22;57257;48.408;-4.498;2023-07-24T01:45:30;18.22;75.68
69944;DHT22;57257;48.408;-4.498;2023-07-24T01:47:55;18.21;75.64
69944;DHT22;57257;48.408;-4.498;2023-07-24T01:50:21;18.19;75.72
69944;DHT22;57257;48.408;-4.498;2023-07-24T01:52:46;18.18;76.03
69944;DHT22;57257;48.408;-4.498;2023-07-24T01:55:11;18.15;76.00
69944;DHT22;57257;48.408;-4.498;2023-07-24T01:57:37;18.15;76.06
69944;DHT22;57257;48.408;-4.498;2023-07-24T02:00:02;18.17;76.02
69944;DHT22;57257;48.408;-4.498;2023-07-24T02:02:28;18.18;75.96
69944;DHT22;57257;48.408;-4.498;2023-07-24T02:04:53;18.11;76.00
69944;DHT22;57257;48.408;-4.498;2023-07-24T02:07:19;18.07;75.96
69944;DHT22;57257;48.408;-4.498;2023-07-24T02:09:44;18.00;76.02
69944;DHT22;57257;48.408;-4.498;2023-07-24T02:12:10;17.96;76.02
69944;DHT22;57257;48.408;-4.498;2023-07-24T02:14:35;17.91;76.07
69944;DHT22;57257;48.408;-4.498;2023-07-24T02:17:01;17.87;76.27
69944;DHT22;57257;48.408;-4.498;2023-07-24T02:19:26;17.83;76.35
69944;DHT22;57257;48.408;-4.498;2023-07-24T02:21:51;17.83;76.55
69944;DHT22;57257;48.408;-4.498;2023-07-24T02:24:17;17.87;76.53
69944;DHT22;57257;48.408;-4.498;2023-07-24T02:26:42;17.87;76.62
69944;DHT22;57257;48.408;-4.498;2023-07-24T02:29:08;17.88;76.65
69944;DHT22;57257;48.408;-4.498;2023-07-24T02:31:33;17.87;76.83
69944;DHT22;57257;48.408;-4.498;2023-07-24T02:33:59;17.86;76.91
69944;DHT22;57257;48.408;-4.498;2023-07-24T02:36:24;17.81;77.21
69944;DHT22;57257;48.408;-4.498;2023-07-24T02:38:50;17.84;77.15
69944;DHT22;57257;48.408;-4.498;2023-07-24T02:41:15;17.84;77.18
69944;DHT22;57257;48.408;-4.498;2023-07-24T02:43:41;17.84;77.24
69944;DHT22;57257;48.408;-4.498;2023-07-24T02:46:06;17.86;77.68
69944;DHT22;57257;48.408;-4.498;2023-07-24T02:48:32;17.86;77.55
69944;DHT22;57257;48.408;-4.498;2023-07-24T02:50:57;17.86;77.64
69944;DHT22;57257;48.408;-4.498;2023-07-24T02:53:22;17.83;78.09
69944;DHT22;57257;48.408;-4.498;2023-07-24T02:55:48;17.87;77.82
69944;DHT22;57257;48.408;-4.498;2023-07-24T02:58:14;17.86;77.86
69944;DHT22;57257;48.408;-4.498;2023-07-24T03:00:39;17.80;78.17
69944;DHT22;57257;48.408;-4.498;2023-07-24T03:03:05;17.84;78.34
69944;DHT22;57257;48.408;-4.498;2023-07-24T03:05:31;17.83;78.30
69944;DHT22;57257;48.408;-4.498;2023-07-24T03:07:58;17.83;78.51
69944;DHT22;57257;48.408;-4.498;2023-07-24T03:10:24;17.83;78.55
69944;DHT22;57257;48.408;-4.498;2023-07-24T03:12:49;17.81;78.70
69944;DHT22;57257;48.408;-4.498;2023-07-24T03:15:15;17.87;78.66
69944;DHT22;57257;48.408;-4.498;2023-07-24T03:17:40;17.87;78.77
69944;DHT22;57257;48.408;-4.498;2023-07-24T03:20:14;17.87;78.83
69944;DHT22;57257;48.408;-4.498;2023-07-24T03:22:40;17.86;78.88
69944;DHT22;57257;48.408;-4.498;2023-07-24T03:25:06;17.88;78.91
69944;DHT22;57257;48.408;-4.498;2023-07-24T03:27:32;17.91;78.90
69944;DHT22;57257;48.408;-4.498;2023-07-24T03:29:57;17.91;79.01
69944;DHT22;57257;48.408;-4.498;2023-07-24T03:32:22;17.90;79.04
69944;DHT22;57257;48.408;-4.498;2023-07-24T03:34:48;17.96;78.92
69944;DHT22;57257;48.408;-4.498;2023-07-24T03:37:13;17.96;79.00
69944;DHT22;57257;48.408;-4.498;2023-07-24T03:39:38;17.98;78.91
69944;DHT22;57257;48.408;-4.498;2023-07-24T03:42:04;17.98;79.01
69944;DHT22;57257;48.408;-4.498;2023-07-24T03:44:29;18.00;78.97
69944;DHT22;57257;48.408;-4.498;2023-07-24T03:46:55;18.02;78.94
69944;DHT22;57257;48.408;-4.498;2023-07-24T03:49:20;18.02;78.87
69944;DHT22;57257;48.408;-4.498;2023-07-24T03:51:47;18.05;78.86
69944;DHT22;57257;48.408;-4.498;2023-07-24T03:54:13;18.08;78.87
69944;DHT22;57257;48.408;-4.498;2023-07-24T03:56:39;18.11;78.79
69944;DHT22;57257;48.408;-4.498;2023-07-24T03:59:05;18.12;78.68
69944;DHT22;57257;48.408;-4.498;2023-07-24T04:01:31;18.14;78.68
69944;DHT22;57257;48.408;-4.498;2023-07-24T04:03:57;18.15;78.77
69944;DHT22;57257;48.408;-4.498;2023-07-24T04:06:23;18.17;78.76
69944;DHT22;57257;48.408;-4.498;2023-07-24T04:08:48;18.19;78.80
69944;DHT22;57257;48.408;-4.498;2023-07-24T04:11:14;18.21;78.67
69944;DHT22;57257;48.408;-4.498;2023-07-24T04:13:39;18.22;78.78
69944;DHT22;57257;48.408;-4.498;2023-07-24T04:16:05;18.24;78.98
69944;DHT22;57257;48.408;-4.498;2023-07-24T04:18:30;18.28;78.77
69944;DHT22;57257;48.408;-4.498;2023-07-24T04:20:56;18.31;78.66
69944;DHT22;57257;48.408;-4.498;2023-07-24T04:23:22;18.29;78.86
69944;DHT22;57257;48.408;-4.498;2023-07-24T04:25:50;18.29;78.87
69944;DHT22;57257;48.408;-4.498;2023-07-24T04:28:15;18.32;78.79
69944;DHT22;57257;48.408;-4.498;2023-07-24T04:30:41;18.34;78.70
69944;DHT22;57257;48.408;-4.498;2023-07-24T04:33:06;18.34;78.59
69944;DHT22;57257;48.408;-4.498;2023-07-24T04:35:32;18.32;78.57
69944;DHT22;57257;48.408;-4.498;2023-07-24T04:37:57;18.32;78.84
69944;DHT22;57257;48.408;-4.498;2023-07-24T04:40:23;18.37;78.95
69944;DHT22;57257;48.408;-4.498;2023-07-24T04:42:49;18.41;78.79
69944;DHT22;57257;48.408;-4.498;2023-07-24T04:45:14;18.41;78.59
69944;DHT22;57257;48.408;-4.498;2023-07-24T04:47:40;18.41;78.43
69944;DHT22;57257;48.408;-4.498;2023-07-24T04:50:06;18.42;78.52
69944;DHT22;57257;48.408;-4.498;2023-07-24T04:52:31;18.41;78.47
69944;DHT22;57257;48.408;-4.498;2023-07-24T04:54:57;18.42;78.53
69944;DHT22;57257;48.408;-4.498;2023-07-24T04:57:22;18.45;78.32
69944;DHT22;57257;48.408;-4.498;2023-07-24T04:59:47;18.42;78.50
69944;DHT22;57257;48.408;-4.498;2023-07-24T05:02:13;18.45;78.58
69944;DHT22;57257;48.408;-4.498;2023-07-24T05:04:39;18.49;78.64
69944;DHT22;57257;48.408;-4.498;2023-07-24T05:07:04;18.49;78.59
69944;DHT22;57257;48.408;-4.498;2023-07-24T05:09:29;18.58;78.28
69944;DHT22;57257;48.408;-4.498;2023-07-24T05:11:55;18.55;78.18
69944;DHT22;57257;48.408;-4.498;2023-07-24T05:14:20;18.52;78.31
69944;DHT22;57257;48.408;-4.498;2023-07-24T05:16:46;18.53;78.43
69944;DHT22;57257;48.408;-4.498;2023-07-24T05:19:11;18.56;78.35
69944;DHT22;57257;48.408;-4.498;2023-07-24T05:21:36;18.58;78.44
69944;DHT22;57257;48.408;-4.498;2023-07-24T05:24:02;18.62;78.52
69944;DHT22;57257;48.408;-4.498;2023-07-24T05:26:27;18.62;78.30
69944;DHT22;57257;48.408;-4.498;2023-07-24T05:28:53;18.68;78.26
69944;DHT22;57257;48.408;-4.498;2023-07-24T05:31:18;18.71;78.14
69944;DHT22;57257;48.408;-4.498;2023-07-24T05:33:44;18.69;78.19
69944;DHT22;57257;48.408;-4.498;2023-07-24T05:36:09;18.71;78.29
69944;DHT22;57257;48.408;-4.498;2023-07-24T05:38:34;18.75;78.20
69944;DHT22;57257;48.408;-4.498;2023-07-24T05:41:02;18.75;78.20
69944;DHT22;57257;48.408;-4.498;2023-07-24T05:43:28;18.76;78.16
69944;DHT22;57257;48.408;-4.498;2023-07-24T05:45:55;18.73;78.10
69944;DHT22;57257;48.408;-4.498;2023-07-24T05:48:21;18.72;78.19
69944;DHT22;57257;48.408;-4.498;2023-07-24T05:50:47;18.73;78.31
69944;DHT22;57257;48.408;-4.498;2023-07-24T05:53:16;18.81;78.34
69944;DHT22;57257;48.408;-4.498;2023-07-24T05:55:41;18.79;78.36
69944;DHT22;57257;48.408;-4.498;2023-07-24T05:58:08;18.81;78.42
69944;DHT22;57257;48.408;-4.498;2023-07-24T06:00:34;18.79;78.47
69944;DHT22;57257;48.408;-4.498;2023-07-24T06:02:59;18.85;78.48
69944;DHT22;57257;48.408;-4.498;2023-07-24T06:05:25;18.88;78.38
69944;DHT22;57257;48.408;-4.498;2023-07-24T06:07:50;18.88;78.24
69944;DHT22;57257;48.408;-4.498;2023-07-24T06:10:15;18.91;78.29
69944;DHT22;57257;48.408;-4.498;2023-07-24T06:12:41;18.93;78.22
69944;DHT22;57257;48.408;-4.498;2023-07-24T06:15:06;19.00;78.14
69944;DHT22;57257;48.408;-4.498;2023-07-24T06:17:32;19.04;78.18
69944;DHT22;57257;48.408;-4.498;2023-07-24T06:19:58;19.06;78.07
69944;DHT22;57257;48.408;-4.498;2023-07-24T06:22:24;19.10;78.00
69944;DHT22;57257;48.408;-4.498;2023-07-24T06:24:49;19.13;78.05
69944;DHT22;57257;48.408;-4.498;2023-07-24T06:27:15;19.17;77.95
69944;DHT22;57257;48.408;-4.498;2023-07-24T06:29:40;19.17;77.78
69944;DHT22;57257;48.408;-4.498;2023-07-24T06:32:06;19.22;77.78
69944;DHT22;57257;48.408;-4.498;2023-07-24T06:34:32;19.24;77.81
69944;DHT22;57257;48.408;-4.498;2023-07-24T06:36:58;19.30;77.87
69944;DHT22;57257;48.408;-4.498;2023-07-24T06:39:23;19.36;77.90
69944;DHT22;57257;48.408;-4.498;2023-07-24T06:41:50;19.41;77.81
69944;DHT22;57257;48.408;-4.498;2023-07-24T06:44:16;19.47;77.79
69944;DHT22;57257;48.408;-4.498;2023-07-24T06:46:41;19.49;77.72
69944;DHT22;57257;48.408;-4.498;2023-07-24T06:49:06;19.49;77.60
69944;DHT22;57257;48.408;-4.498;2023-07-24T06:51:32;19.54;77.53
69944;DHT22;57257;48.408;-4.498;2023-07-24T06:53:57;19.58;77.45
69944;DHT22;57257;48.408;-4.498;2023-07-24T06:56:23;19.63;77.26
69944;DHT22;57257;48.408;-4.498;2023-07-24T06:58:48;19.61;77.12
69944;DHT22;57257;48.408;-4.498;2023-07-24T07:04:29;19.87;77.03
69944;DHT22;57257;48.408;-4.498;2023-07-24T07:06:54;19.94;76.79
69944;DHT22;57257;48.408;-4.498;2023-07-24T07:09:20;19.95;76.58
69944;DHT22;57257;48.408;-4.498;2023-07-24T07:11:45;20.00;76.28
69944;DHT22;57257;48.408;-4.498;2023-07-24T07:14:10;19.95;75.99
69944;DHT22;57257;48.408;-4.498;2023-07-24T07:16:36;19.97;75.74
69944;DHT22;57257;48.408;-4.498;2023-07-24T07:19:02;19.94;75.69
69944;DHT22;57257;48.408;-4.498;2023-07-24T07:21:28;20.01;75.63
69944;DHT22;57257;48.408;-4.498;2023-07-24T07:23:54;20.04;75.14
69944;DHT22;57257;48.408;-4.498;2023-07-24T07:26:20;20.04;75.15
69944;DHT22;57257;48.408;-4.498;2023-07-24T07:28:45;20.02;74.98
69944;DHT22;57257;48.408;-4.498;2023-07-24T07:31:11;20.21;75.28
69944;DHT22;57257;48.408;-4.498;2023-07-24T07:33:36;20.32;74.59
69944;DHT22;57257;48.408;-4.498;2023-07-24T07:36:02;20.45;74.50
69944;DHT22;57257;48.408;-4.498;2023-07-24T07:38:29;20.56;74.31
69944;DHT22;57257;48.408;-4.498;2023-07-24T07:40:55;20.56;74.13
69944;DHT22;57257;48.408;-4.498;2023-07-24T07:43:20;20.61;73.97
69944;DHT22;57257;48.408;-4.498;2023-07-24T07:45:47;20.66;73.02
69944;DHT22;57257;48.408;-4.498;2023-07-24T07:48:12;20.68;73.33
69944;DHT22;57257;48.408;-4.498;2023-07-24T07:50:38;20.71;73.22
69944;DHT22;57257;48.408;-4.498;2023-07-24T07:53:03;20.68;72.75
69944;DHT22;57257;48.408;-4.498;2023-07-24T07:55:29;20.65;72.98
69944;DHT22;57257;48.408;-4.498;2023-07-24T07:57:54;20.62;72.96
69944;DHT22;57257;48.408;-4.498;2023-07-24T08:00:20;20.75;73.05
69944;DHT22;57257;48.408;-4.498;2023-07-24T08:02:45;20.97;73.02
69944;DHT22;57257;48.408;-4.498;2023-07-24T08:05:11;21.07;72.74
69944;DHT22;57257;48.408;-4.498;2023-07-24T08:07:36;21.22;72.52
69944;DHT22;57257;48.408;-4.498;2023-07-24T08:10:02;21.51;71.87
69944;DHT22;57257;48.408;-4.498;2023-07-24T08:12:28;21.81;71.15
69944;DHT22;57257;48.408;-4.498;2023-07-24T08:14:55;22.04;70.49
69944;DHT22;57257;48.408;-4.498;2023-07-24T08:17:20;22.19;69.44
69944;DHT22;57257;48.408;-4.498;2023-07-24T08:19:46;22.08;68.93
69944;DHT22;57257;48.408;-4.498;2023-07-24T08:22:11;21.97;69.28
69944;DHT22;57257;48.408;-4.498;2023-07-24T08:24:37;21.84;69.77
69944;DHT22;57257;48.408;-4.498;2023-07-24T08:27:02;22.08;70.04
69944;DHT22;57257;48.408;-4.498;2023-07-24T08:29:28;22.45;69.23
69944;DHT22;57257;48.408;-4.498;2023-07-24T08:31:53;22.67;69.18
69944;DHT22;57257;48.408;-4.498;2023-07-24T08:34:19;22.77;67.99
69944;DHT22;57257;48.408;-4.498;2023-07-24T08:36:44;22.83;68.23
69944;DHT22;57257;48.408;-4.498;2023-07-24T08:39:10;23.00;67.38
69944;DHT22;57257;48.408;-4.498;2023-07-24T08:41:36;23.03;67.02
69944;DHT22;57257;48.408;-4.498;2023-07-24T08:44:04;23.03;67.05
69944;DHT22;57257;48.408;-4.498;2023-07-24T08:46:30;22.90;66.98
69944;DHT22;57257;48.408;-4.498;2023-07-24T08:48:55;22.79;66.63
69944;DHT22;57257;48.408;-4.498;2023-07-24T08:51:21;22.69;66.56
69944;DHT22;57257;48.408;-4.498;2023-07-24T08:53:48;22.66;67.00
69944;DHT22;57257;48.408;-4.498;2023-07-24T08:56:13;22.83;66.45
69944;DHT22;57257;48.408;-4.498;2023-07-24T08:58:40;23.07;66.73
69944;DHT22;57257;48.408;-4.498;2023-07-24T09:01:06;23.37;65.42
69944;DHT22;57257;48.408;-4.498;2023-07-24T09:03:33;23.61;65.55
69944;DHT22;57257;48.408;-4.498;2023-07-24T09:05:59;23.72;63.94
69944;DHT22;57257;48.408;-4.498;2023-07-24T09:08:36;23.53;64.05
69944;DHT22;57257;48.408;-4.498;2023-07-24T09:11:04;23.23;63.50
69944;DHT22;57257;48.408;-4.498;2023-07-24T09:13:30;23.00;64.29
69944;DHT22;57257;48.408;-4.498;2023-07-24T09:15:56;22.86;64.38
69944;DHT22;57257;48.408;-4.498;2023-07-24T09:18:21;23.03;64.80
69944;DHT22;57257;48.408;-4.498;2023-07-24T09:20:47;23.36;64.71
69944;DHT22;57257;48.408;-4.498;2023-07-24T09:23:14;23.53;62.88
69944;DHT22;57257;48.408;-4.498;2023-07-24T09:25:41;23.47;63.33
69944;DHT22;57257;48.408;-4.498;2023-07-24T09:28:14;23.38;63.15
69944;DHT22;57257;48.408;-4.498;2023-07-24T09:30:40;23.38;63.34
69944;DHT22;57257;48.408;-4.498;2023-07-24T09:33:06;23.40;62.94
69944;DHT22;57257;48.408;-4.498;2023-07-24T09:35:32;23.28;61.99
69944;DHT22;57257;48.408;-4.498;2023-07-24T09:38:08;23.04;62.77
69944;DHT22;57257;48.408;-4.498;2023-07-24T09:40:43;22.86;63.49
69944;DHT22;57257;48.408;-4.498;2023-07-24T09:45:48;22.62;64.02
69944;DHT22;57257;48.408;-4.498;2023-07-24T09:48:15;22.53;63.68
69944;DHT22;57257;48.408;-4.498;2023-07-24T09:50:42;22.45;63.82
69944;DHT22;57257;48.408;-4.498;2023-07-24T09:56:05;22.57;64.28
69944;DHT22;57257;48.408;-4.498;2023-07-24T09:58:33;22.59;64.23
69944;DHT22;57257;48.408;-4.498;2023-07-24T10:01:01;22.56;64.24
69944;DHT22;57257;48.408;-4.498;2023-07-24T10:03:28;22.48;64.31
69944;DHT22;57257;48.408;-4.498;2023-07-24T10:05:54;22.38;64.73
69944;DHT22;57257;48.408;-4.498;2023-07-24T10:08:21;22.26;65.01
69944;DHT22;57257;48.408;-4.498;2023-07-24T10:10:46;22.18;64.98
69944;DHT22;57257;48.408;-4.498;2023-07-24T10:13:16;22.12;64.98
69944;DHT22;57257;48.408;-4.498;2023-07-24T10:15:42;22.08;65.33
69944;DHT22;57257;48.408;-4.498;2023-07-24T10:18:09;22.06;65.33
69944;DHT22;57257;48.408;-4.498;2023-07-24T10:20:36;22.09;65.58
69944;DHT22;57257;48.408;-4.498;2023-07-24T10:23:06;22.11;65.78
69944;DHT22;57257;48.408;-4.498;2023-07-24T10:25:33;22.09;65.84
69944;DHT22;57257;48.408;-4.498;2023-07-24T10:28:04;22.08;65.91
69944;DHT22;57257;48.408;-4.498;2023-07-24T10:30:42;22.01;65.82
69944;DHT22;57257;48.408;-4.498;2023-07-24T10:33:10;21.98;65.89
69944;DHT22;57257;48.408;-4.498;2023-07-24T10:35:40;21.95;65.95
69944;DHT22;57257;48.408;-4.498;2023-07-24T10:38:05;21.94;65.61
69944;DHT22;57257;48.408;-4.498;2023-07-24T10:40:33;21.91;65.72
69944;DHT22;57257;48.408;-4.498;2023-07-24T10:43:09;21.95;65.48
69944;DHT22;57257;48.408;-4.498;2023-07-24T10:46:01;21.94;65.22
69944;DHT22;57257;48.408;-4.498;2023-07-24T10:48:26;21.97;64.90
69944;DHT22;57257;48.408;-4.498;2023-07-24T10:50:52;21.97;64.90
69944;DHT22;57257;48.408;-4.498;2023-07-24T10:53:19;22.02;64.81
69944;DHT22;57257;48.408;-4.498;2023-07-24T10:55:46;22.04;64.91
69944;DHT22;57257;48.408;-4.498;2023-07-24T10:58:13;22.06;64.47
69944;DHT22;57257;48.408;-4.498;2023-07-24T11:00:42;22.16;64.49
69944;DHT22;57257;48.408;-4.498;2023-07-24T11:03:36;22.19;64.14
69944;DHT22;57257;48.408;-4.498;2023-07-24T11:06:03;22.19;63.83
69944;DHT22;57257;48.408;-4.498;2023-07-24T11:08:29;22.16;62.78
69944;DHT22;57257;48.408;-4.498;2023-07-24T11:10:57;22.15;63.29
69944;DHT22;57257;48.408;-4.498;2023-07-24T11:13:25;22.23;63.05
69944;DHT22;57257;48.408;-4.498;2023-07-24T11:15:52;22.33;63.11
69944;DHT22;57257;48.408;-4.498;2023-07-24T11:18:18;22.33;61.61
69944;DHT22;57257;48.408;-4.498;2023-07-24T11:20:53;22.36;61.48
69944;DHT22;57257;48.408;-4.498;2023-07-24T11:23:19;22.32;61.34
69944;DHT22;57257;48.408;-4.498;2023-07-24T11:25:46;22.35;61.26
69944;DHT22;57257;48.408;-4.498;2023-07-24T11:28:14;22.41;61.49
69944;DHT22;57257;48.408;-4.498;2023-07-24T11:30:40;22.46;61.10
69944;DHT22;57257;48.408;-4.498;2023-07-24T11:33:08;22.53;60.87
69944;DHT22;57257;48.408;-4.498;2023-07-24T11:35:34;22.57;61.04
69944;DHT22;57257;48.408;-4.498;2023-07-24T11:38:01;22.63;60.63
69944;DHT22;57257;48.408;-4.498;2023-07-24T11:43:02;22.66;59.46
69944;DHT22;57257;48.408;-4.498;2023-07-24T11:45:29;22.60;59.54
69944;DHT22;57257;48.408;-4.498;2023-07-24T11:47:54;22.60;58.75
69944;DHT22;57257;48.408;-4.498;2023-07-24T11:50:21;22.46;58.78
69944;DHT22;57257;48.408;-4.498;2023-07-24T11:52:49;22.42;58.78
69944;DHT22;57257;48.408;-4.498;2023-07-24T11:55:17;22.39;58.53
69944;DHT22;57257;48.408;-4.498;2023-07-24T11:57:43;22.39;58.15
69944;DHT22;57257;48.408;-4.498;2023-07-24T12:00:22;22.31;57.40
69944;DHT22;57257;48.408;-4.498;2023-07-24T12:02:47;22.29;57.88
69944;DHT22;57257;48.408;-4.498;2023-07-24T12:05:19;22.31;57.29
69944;DHT22;57257;48.408;-4.498;2023-07-24T12:07:45;22.32;57.40
69944;DHT22;57257;48.408;-4.498;2023-07-24T12:10:12;22.43;57.12
69944;DHT22;57257;48.408;-4.498;2023-07-24T12:12:45;22.51;56.56
69944;DHT22;57257;48.408;-4.498;2023-07-24T12:15:12;22.56;55.99
69944;DHT22;57257;48.408;-4.498;2023-07-24T12:17:38;22.57;55.81
69944;DHT22;57257;48.408;-4.498;2023-07-24T12:20:04;22.60;56.05
69944;DHT22;57257;48.408;-4.498;2023-07-24T12:22:31;22.66;56.25
69944;DHT22;57257;48.408;-4.498;2023-07-24T12:24:57;22.70;55.39
69944;DHT22;57257;48.408;-4.498;2023-07-24T12:27:23;22.70;55.69
69944;DHT22;57257;48.408;-4.498;2023-07-24T12:29:49;22.80;56.31
69944;DHT22;57257;48.408;-4.498;2023-07-24T12:32:15;22.83;56.39
69944;DHT22;57257;48.408;-4.498;2023-07-24T12:34:40;22.82;55.98
69944;DHT22;57257;48.408;-4.498;2023-07-24T12:37:06;22.77;56.14
69944;DHT22;57257;48.408;-4.498;2023-07-24T12:39:31;22.79;56.30
69944;DHT22;57257;48.408;-4.498;2023-07-24T12:41:56;22.76;56.41
69944;DHT22;57257;48.408;-4.498;2023-07-24T12:44:22;22.82;56.16
69944;DHT22;57257;48.408;-4.498;2023-07-24T12:46:48;22.86;56.85
69944;DHT22;57257;48.408;-4.498;2023-07-24T12:49:13;23.03;56.99
69944;DHT22;57257;48.408;-4.498;2023-07-24T12:51:39;23.24;57.02
69944;DHT22;57257;48.408;-4.498;2023-07-24T12:54:04;23.31;56.53
69944;DHT22;57257;48.408;-4.498;2023-07-24T12:56:30;23.17;56.04
69944;DHT22;57257;48.408;-4.498;2023-07-24T12:58:55;23.02;56.45
69944;DHT22;57257;48.408;-4.498;2023-07-24T13:01:20;22.96;56.85
69944;DHT22;57257;48.408;-4.498;2023-07-24T13:03:46;22.96;56.59
69944;DHT22;57257;48.408;-4.498;2023-07-24T13:06:11;22.90;56.92
69944;DHT22;57257;48.408;-4.498;2023-07-24T13:08:37;23.02;57.15
69944;DHT22;57257;48.408;-4.498;2023-07-24T13:11:02;23.08;56.51
69944;DHT22;57257;48.408;-4.498;2023-07-24T13:13:27;23.13;56.59
69944;DHT22;57257;48.408;-4.498;2023-07-24T13:15:53;23.21;56.75
69944;DHT22;57257;48.408;-4.498;2023-07-24T13:18:18;23.27;56.17
69944;DHT22;57257;48.408;-4.498;2023-07-24T13:20:45;23.24;55.80
69944;DHT22;57257;48.408;-4.498;2023-07-24T13:23:11;23.23;55.89
69944;DHT22;57257;48.408;-4.498;2023-07-24T13:25:36;23.28;56.06
69944;DHT22;57257;48.408;-4.498;2023-07-24T13:28:02;23.34;56.05
69944;DHT22;57257;48.408;-4.498;2023-07-24T13:30:27;23.41;54.98
69944;DHT22;57257;48.408;-4.498;2023-07-24T13:32:52;23.43;54.05
69944;DHT22;57257;48.408;-4.498;2023-07-24T13:35:18;23.38;53.71
69944;DHT22;57257;48.408;-4.498;2023-07-24T13:37:43;23.34;53.91
69944;DHT22;57257;48.408;-4.498;2023-07-24T13:40:09;23.23;53.31
69944;DHT22;57257;48.408;-4.498;2023-07-24T13:42:34;23.20;53.50
69944;DHT22;57257;48.408;-4.498;2023-07-24T13:45:00;23.18;53.50
69944;DHT22;57257;48.408;-4.498;2023-07-24T13:47:25;23.14;52.88
69944;DHT22;57257;48.408;-4.498;2023-07-24T13:49:51;23.14;53.33
69944;DHT22;57257;48.408;-4.498;2023-07-24T13:52:16;23.21;52.72
69944;DHT22;57257;48.408;-4.498;2023-07-24T13:54:41;23.24;52.47
69944;DHT22;57257;48.408;-4.498;2023-07-24T13:57:07;23.13;53.18
69944;DHT22;57257;48.408;-4.498;2023-07-24T13:59:36;23.13;53.38
69944;DHT22;57257;48.408;-4.498;2023-07-24T14:02:03;23.11;53.56
69944;DHT22;57257;48.408;-4.498;2023-07-24T14:04:29;23.13;54.32
69944;DHT22;57257;48.408;-4.498;2023-07-24T14:06:54;23.23;54.28
69944;DHT22;57257;48.408;-4.498;2023-07-24T14:09:19;23.36;54.37
69944;DHT22;57257;48.408;-4.498;2023-07-24T14:11:45;23.41;54.33
69944;DHT22;57257;48.408;-4.498;2023-07-24T14:14:10;23.46;53.87
69944;DHT22;57257;48.408;-4.498;2023-07-24T14:16:36;23.44;53.88
69944;DHT22;57257;48.408;-4.498;2023-07-24T14:19:02;23.37;53.14
69944;DHT22;57257;48.408;-4.498;2023-07-24T14:21:27;23.43;53.60
69944;DHT22;57257;48.408;-4.498;2023-07-24T14:23:52;23.64;52.84
69944;DHT22;57257;48.408;-4.498;2023-07-24T14:26:18;23.74;53.29
69944;DHT22;57257;48.408;-4.498;2023-07-24T14:28:43;23.71;52.83
69944;DHT22;57257;48.408;-4.498;2023-07-24T14:31:09;23.71;52.96
69944;DHT22;57257;48.408;-4.498;2023-07-24T14:33:34;23.62;52.48
69944;DHT22;57257;48.408;-4.498;2023-07-24T14:35:59;23.54;52.64
69944;DHT22;57257;48.408;-4.498;2023-07-24T14:38:25;23.57;52.74
69944;DHT22;57257;48.408;-4.498;2023-07-24T14:40:50;23.61;52.11
69944;DHT22;57257;48.408;-4.498;2023-07-24T14:43:16;23.71;52.58
69944;DHT22;57257;48.408;-4.498;2023-07-24T14:45:41;23.81;51.82
69944;DHT22;57257;48.408;-4.498;2023-07-24T14:48:07;23.88;51.79
69944;DHT22;57257;48.408;-4.498;2023-07-24T14:50:34;24.01;51.30
69944;DHT22;57257;48.408;-4.498;2023-07-24T14:52:59;24.08;50.92
69944;DHT22;57257;48.408;-4.498;2023-07-24T14:55:25;23.98;50.71
69944;DHT22;57257;48.408;-4.498;2023-07-24T14:57:50;24.11;51.40
69944;DHT22;57257;48.408;-4.498;2023-07-24T15:00:16;24.30;51.66
69944;DHT22;57257;48.408;-4.498;2023-07-24T15:02:41;24.40;50.91
69944;DHT22;57257;48.408;-4.498;2023-07-24T15:05:07;24.26;50.76
69944;DHT22;57257;48.408;-4.498;2023-07-24T15:07:32;24.08;50.68
69944;DHT22;57257;48.408;-4.498;2023-07-24T15:09:57;23.95;51.40
69944;DHT22;57257;48.408;-4.498;2023-07-24T15:12:23;24.09;52.07
69944;DHT22;57257;48.408;-4.498;2023-07-24T15:14:50;24.22;51.89
69944;DHT22;57257;48.408;-4.498;2023-07-24T15:17:15;24.22;51.92
69944;DHT22;57257;48.408;-4.498;2023-07-24T15:19:43;24.18;51.95
69944;DHT22;57257;48.408;-4.498;2023-07-24T15:22:08;24.08;51.73